Time;durP1;ratioP1;P1;durP2;ratioP2;P2;SDS_P1;SDS_P2;PMS_P1;PMS_P2;Temp;Humidity;BMP_temperature;BMP_pressure;BME280_temperature;BME280_humidity;BME280_pressure;Samples;Min_cycle;Max_cycle;Signal;HPM_P1;HPM_P2
2022/10/15 00:02:22;;;;;;;0.10;0.10;;;;;;;6.96;68.51;100508.47;4987505;28;20137;-63
2022/10/15 00:04:48;;;;;;;0.10;0.10;;;;;;;6.97;68.23;100510.13;4989864;28;20494;-63
2022/10/15 00:07:15;;;;;;;0.10;0.10;;;;;;;7.03;68.46;100508.34;4988378;28;20046;-63
2022/10/15 00:09:41;;;;;;;0.07;0.07;;;;;;;7.05;68.13;100506.22;4989196;28;20050;-63
2022/10/15 00:12:07;;;;;;;0.10;0.10;;;;;;;6.99;68.28;100507.16;4986756;28;20575;-64
2022/10/15 00:14:33;;;;;;;0.43;0.10;;;;;;;6.99;67.93;100513.44;4984512;28;20050;-64
2022/10/15 00:16:59;;;;;;;0.10;0.10;;;;;;;7.03;67.70;100511.06;4988857;28;20054;-61
2022/10/15 00:19:26;;;;;;;0.10;0.10;;;;;;;7.00;67.77;100517.81;4972656;28;20054;-64
2022/10/15 00:21:52;;;;;;;0.10;0.10;;;;;;;6.97;67.86;100521.00;4967132;28;20485;-64
2022/10/15 00:24:18;;;;;;;0.10;0.10;;;;;;;6.92;67.93;100512.69;4967727;28;20047;-63
2022/10/15 00:26:44;;;;;;;0.10;0.10;;;;;;;6.97;67.91;100518.28;4949831;28;20514;-63
2022/10/15 00:29:11;;;;;;;0.10;0.10;;;;;;;6.99;67.88;100505.28;4969193;28;20074;-62
2022/10/15 00:31:37;;;;;;;0.10;0.10;;;;;;;7.05;67.72;100501.59;4966804;28;20062;-64
2022/10/15 00:34:04;;;;;;;0.10;0.10;;;;;;;7.07;67.68;100510.34;4970081;28;20093;-64
2022/10/15 00:36:33;;;;;;;0.17;0.17;;;;;;;7.08;67.69;100512.00;4969178;28;20046;-67
2022/10/15 00:39:00;;;;;;;0.10;0.10;;;;;;;7.03;67.67;100509.16;4967150;28;20373;-65
2022/10/15 00:41:29;;;;;;;0.10;0.10;;;;;;;7.08;67.82;100505.75;4983013;28;20088;-66
2022/10/15 00:43:57;;;;;;;0.10;0.10;;;;;;;7.08;67.84;100500.31;4981175;28;20057;-65
2022/10/15 00:46:25;;;;;;;0.10;0.10;;;;;;;7.07;67.62;100504.91;4987672;28;20080;-65
2022/10/15 00:48:55;;;;;;;0.10;0.10;;;;;;;7.03;67.89;100502.91;4988553;28;20156;-65
2022/10/15 00:51:26;;;;;;;0.10;0.10;;;;;;;7.03;67.79;100501.00;4969340;28;20352;-66
2022/10/15 00:53:54;;;;;;;0.10;0.10;;;;;;;7.05;67.62;100503.50;4988787;28;20140;-64
2022/10/15 00:56:23;;;;;;;0.10;0.10;;;;;;;7.03;67.42;100503.72;4987321;28;20061;-66
2022/10/15 00:58:50;;;;;;;0.10;0.10;;;;;;;7.04;67.65;100510.00;4986562;28;20057;-65
2022/10/15 01:01:16;;;;;;;;;;;;;;;7.04;67.18;100505.38;4986028;28;20054;-65
2022/10/15 01:03:42;;;;;;;0.20;0.10;;;;;;;6.98;66.72;100506.34;4988592;28;19932;-64
2022/10/15 01:06:08;;;;;;;0.10;0.10;;;;;;;6.94;66.86;100516.00;4987020;28;20072;-65
2022/10/15 01:08:34;;;;;;;0.10;0.10;;;;;;;6.92;66.98;100518.97;4987684;28;20140;-66
2022/10/15 01:11:12;;;;;;;0.20;0.20;;;;;;;6.93;66.94;100507.03;4984703;28;20046;-66
2022/10/15 01:13:50;;;;;;;0.10;0.10;;;;;;;6.79;66.90;100492.81;4972914;28;20524;-66
2022/10/15 01:16:22;;;;;;;0.10;0.10;;;;;;;6.95;67.01;100513.06;4985931;28;20525;-65
2022/10/15 01:18:55;;;;;;;0.10;0.10;;;;;;;6.92;66.87;100513.53;4986198;28;20047;-65
2022/10/15 01:21:27;;;;;;;0.17;0.17;;;;;;;6.93;67.07;100508.91;4986759;28;20046;-66
2022/10/15 01:24:28;;;;;;;0.10;0.10;;;;;;;6.98;66.97;100513.66;4986296;28;20050;-67
2022/10/15 01:27:16;;;;;;;0.10;0.10;;;;;;;7.03;66.78;100508.34;4988725;28;20537;-63
2022/10/15 01:30:05;;;;;;;0.10;0.10;;;;;;;7.04;66.61;100513.53;4983824;28;20046;-63
2022/10/15 01:32:36;;;;;;;0.13;0.13;;;;;;;7.03;66.65;100519.22;4985795;28;20509;-63
2022/10/15 01:35:10;;;;;;;0.10;0.10;;;;;;;7.02;66.63;100521.13;4969732;28;20038;-63
2022/10/15 01:37:41;;;;;;;0.10;0.10;;;;;;;7.04;66.42;100526.31;4987711;28;20050;-63
2022/10/15 01:40:14;;;;;;;0.10;0.10;;;;;;;7.06;66.26;100526.91;4969970;28;20109;-66
2022/10/15 01:42:46;;;;;;;0.10;0.10;;;;;;;7.07;66.07;100523.94;4986694;28;20050;-64
2022/10/15 01:45:19;;;;;;;0.47;0.10;;;;;;;7.08;65.84;100522.88;4968475;28;20597;-63
2022/10/15 01:48:08;;;;;;;0.10;0.10;;;;;;;7.14;65.49;100525.75;4988589;28;20052;-64
2022/10/15 01:50:39;;;;;;;0.10;0.10;;;;;;;7.11;65.74;100529.75;4985331;28;20053;-64
2022/10/15 01:53:07;;;;;;;0.35;0.20;;;;;;;7.08;65.67;100524.78;4986569;28;20770;-64
2022/10/15 01:55:35;;;;;;;0.10;0.10;;;;;;;7.09;65.59;100529.97;4965922;28;20507;-64
2022/10/15 01:58:03;;;;;;;0.10;0.10;;;;;;;7.18;65.84;100526.94;4967156;28;20232;-65
2022/10/15 02:00:29;;;;;;;0.15;0.15;;;;;;;7.21;65.81;100530.03;4966650;28;20058;-63
2022/10/15 02:03:01;;;;;;;0.10;0.10;;;;;;;7.15;65.70;100522.78;4966559;28;20073;-64
2022/10/15 02:05:35;;;;;;;0.20;0.13;;;;;;;7.19;66.01;100532.16;4952112;28;20426;-63
2022/10/15 02:08:10;;;;;;;0.10;0.10;;;;;;;7.26;66.15;100529.31;4956100;28;20060;-64
2022/10/15 02:10:47;;;;;;;0.20;0.20;;;;;;;7.33;66.10;100531.91;4968533;28;20426;-65
2022/10/15 02:13:22;;;;;;;0.47;0.20;;;;;;;7.34;66.16;100537.13;4972960;28;20035;-63
2022/10/15 02:16:13;;;;;;;0.13;0.10;;;;;;;7.38;66.20;100532.03;4980937;28;20556;-63
2022/10/15 02:18:45;;;;;;;0.10;0.10;;;;;;;7.39;66.02;100530.97;4993507;28;20506;-63
2022/10/15 02:21:16;;;;;;;0.10;0.10;;;;;;;7.36;66.07;100534.19;4966513;28;20465;-66
2022/10/15 02:23:49;;;;;;;0.10;0.10;;;;;;;7.31;65.97;100534.03;4983986;28;20050;-66
2022/10/15 02:26:17;;;;;;;0.10;0.10;;;;;;;7.20;66.15;100524.81;4979452;28;20133;-66
2022/10/15 02:28:49;;;;;;;0.82;0.13;;;;;;;7.29;66.25;100539.72;4976114;28;20046;-67
2022/10/15 02:31:19;;;;;;;0.10;0.10;;;;;;;7.26;66.28;100542.09;4966549;28;20473;-67
2022/10/15 02:33:47;;;;;;;0.15;0.15;;;;;;;7.28;66.18;100550.81;4968962;28;20141;-64
2022/10/15 02:36:17;;;;;;;0.10;0.10;;;;;;;7.31;65.76;100545.75;4964045;28;20058;-63
2022/10/15 02:38:45;;;;;;;0.32;0.20;;;;;;;7.30;65.77;100549.53;4967029;28;20051;-64
2022/10/15 02:41:12;;;;;;;0.80;0.17;;;;;;;7.34;65.73;100547.19;4970022;28;20051;-66
2022/10/15 02:43:39;;;;;;;0.25;0.10;;;;;;;7.40;65.17;100556.28;4966265;28;20070;-66
2022/10/15 02:46:08;;;;;;;0.10;0.10;;;;;;;7.34;64.81;100553.44;4967130;28;20053;-65
2022/10/15 02:48:36;;;;;;;0.10;0.10;;;;;;;7.33;64.33;100550.94;4967035;28;20137;-66
2022/10/15 02:51:03;;;;;;;0.10;0.10;;;;;;;7.29;64.34;100553.31;4966408;28;20070;-66
2022/10/15 02:53:32;;;;;;;0.10;0.10;;;;;;;7.23;64.25;100557.81;4948937;28;20042;-63
2022/10/15 02:55:58;;;;;;;0.10;0.10;;;;;;;7.22;64.39;100558.88;4965688;28;20098;-64
2022/10/15 02:58:24;;;;;;;0.10;0.10;;;;;;;7.24;64.22;100554.03;4966402;28;20051;-63
2022/10/15 03:00:51;;;;;;;0.10;0.10;;;;;;;7.23;64.39;100559.69;4948651;28;20382;-66
2022/10/15 03:03:17;;;;;;;0.10;0.10;;;;;;;7.26;64.49;100561.97;4965066;28;20063;-66
2022/10/15 03:05:44;;;;;;;0.10;0.10;;;;;;;7.32;64.26;100561.00;4949748;28;20058;-66
2022/10/15 03:08:11;;;;;;;0.10;0.10;;;;;;;7.30;64.09;100559.59;4965757;28;20046;-66
2022/10/15 03:10:39;;;;;;;0.10;0.10;;;;;;;7.29;64.21;100564.22;4980556;28;20073;-66
2022/10/15 03:13:05;;;;;;;0.10;0.10;;;;;;;7.30;63.66;100560.44;4987028;28;20050;-64
2022/10/15 03:15:36;;;;;;;0.10;0.10;;;;;;;7.26;63.73;100563.84;4983305;28;20105;-64
2022/10/15 03:18:03;;;;;;;0.10;0.10;;;;;;;7.16;63.94;100559.78;4967808;28;20058;-66
2022/10/15 03:20:29;;;;;;;0.10;0.10;;;;;;;7.10;64.21;100563.47;4979272;28;20492;-66
2022/10/15 03:22:55;;;;;;;0.10;0.10;;;;;;;7.11;64.01;100561.56;4966549;28;20054;-66
2022/10/15 03:25:21;;;;;;;0.10;0.10;;;;;;;7.14;63.79;100558.38;4964636;28;20426;-66
2022/10/15 03:27:57;;;;;;;0.10;0.10;;;;;;;7.11;63.77;100567.03;4966026;28;20201;-65
2022/10/15 03:30:32;;;;;;;0.10;0.10;;;;;;;7.04;64.13;100562.50;4964410;28;20043;-64
2022/10/15 03:32:58;;;;;;;0.10;0.10;;;;;;;7.02;64.45;100566.50;4948638;28;20248;-65
2022/10/15 03:35:25;;;;;;;0.10;0.10;;;;;;;6.98;63.67;100562.59;4978589;28;20349;-63
2022/10/15 03:37:51;;;;;;;0.10;0.10;;;;;;;7.00;63.77;100564.03;4988450;28;20050;-63
2022/10/15 03:40:17;;;;;;;0.10;0.10;;;;;;;7.02;63.55;100566.50;4989583;28;20440;-63
2022/10/15 03:42:49;;;;;;;0.10;0.10;;;;;;;6.99;63.96;100564.25;4987131;28;20481;-63
2022/10/15 03:45:19;;;;;;;0.10;0.10;;;;;;;6.99;63.58;100572.41;5001981;28;20061;-63
2022/10/15 03:47:47;;;;;;;0.10;0.10;;;;;;;6.97;63.61;100563.66;4986733;28;20085;-63
2022/10/15 03:50:13;;;;;;;0.10;0.10;;;;;;;6.95;63.48;100561.19;4970856;28;20073;-63
2022/10/15 03:52:40;;;;;;;0.10;0.10;;;;;;;6.97;63.58;100567.22;4988436;28;20050;-64
2022/10/15 03:55:11;;;;;;;0.10;0.10;;;;;;;7.08;63.32;100573.75;4986822;28;20162;-62
2022/10/15 03:57:41;;;;;;;0.10;0.10;;;;;;;7.08;63.33;100569.13;4970830;28;20129;-64
2022/10/15 04:00:08;;;;;;;0.32;0.10;;;;;;;7.09;62.97;100572.69;4987518;28;20058;-63
2022/10/15 04:02:41;;;;;;;0.10;0.10;;;;;;;7.09;62.87;100569.97;4989994;28;20058;-63
2022/10/15 04:05:18;;;;;;;0.10;0.10;;;;;;;7.07;62.98;100572.91;4987022;28;20054;-64
2022/10/15 04:07:50;;;;;;;0.10;0.10;;;;;;;7.07;63.10;100563.94;4986306;28;20050;-63
2022/10/15 04:10:19;;;;;;;0.10;0.10;;;;;;;7.02;62.87;100555.63;4988807;28;20061;-64
2022/10/15 04:12:45;;;;;;;0.38;0.10;;;;;;;7.18;62.89;100576.72;4988033;28;20100;-64
2022/10/15 04:15:15;;;;;;;0.10;0.10;;;;;;;7.22;62.40;100577.06;4987688;28;20054;-64
2022/10/15 04:17:53;;;;;;;0.10;0.10;;;;;;;7.21;62.50;100570.81;4986244;28;20434;-64
2022/10/15 04:20:20;;;;;;;0.13;0.10;;;;;;;7.24;62.42;100570.34;4987474;28;20062;-64
2022/10/15 04:22:46;;;;;;;0.10;0.10;;;;;;;7.32;62.23;100569.19;4987554;28;20465;-64
2022/10/15 04:25:13;;;;;;;0.20;0.20;;;;;;;7.34;61.97;100568.97;4986577;28;20149;-63
2022/10/15 04:27:39;;;;;;;0.40;0.20;;;;;;;7.25;61.85;100568.44;4985987;28;20146;-64
2022/10/15 04:30:11;;;;;;;0.10;0.10;;;;;;;7.25;62.01;100573.88;4985020;28;20078;-64
2022/10/15 04:32:41;;;;;;;0.10;0.10;;;;;;;7.26;62.09;100578.28;4972658;28;20054;-64
2022/10/15 04:35:09;;;;;;;0.20;0.20;;;;;;;7.33;61.92;100579.00;4989012;28;20054;-64
2022/10/15 04:37:48;;;;;;;0.20;0.20;;;;;;;7.36;62.04;100572.25;4987564;28;20046;-63
2022/10/15 04:40:14;;;;;;;0.20;0.10;;;;;;;7.42;62.02;100576.75;4988295;28;20140;-64
2022/10/15 04:42:41;;;;;;;0.10;0.10;;;;;;;7.48;61.94;100573.09;4987764;28;20089;-64
2022/10/15 04:45:08;;;;;;;0.13;0.13;;;;;;;7.54;62.06;100584.13;5001329;28;20444;-64
2022/10/15 04:47:34;;;;;;;0.10;0.10;;;;;;;7.51;62.55;100574.53;4987759;28;20050;-64
2022/10/15 04:50:19;;;;;;;0.10;0.10;;;;;;;7.52;62.67;100576.16;4984646;28;20054;-64
2022/10/15 04:53:04;;;;;;;0.10;0.10;;;;;;;7.55;62.60;100586.59;4989445;28;20046;-64
2022/10/15 04:55:34;;;;;;;0.10;0.10;;;;;;;7.62;62.57;100583.75;4987836;28;20055;-65
2022/10/15 04:58:01;;;;;;;0.30;0.30;;;;;;;7.68;62.45;100584.69;4973636;28;20053;-66
2022/10/15 05:00:29;;;;;;;;;;;;;;;7.66;61.79;100590.41;4980249;28;20151;-66
2022/10/15 05:03:09;;;;;;;0.10;0.10;;;;;;;7.58;61.95;100588.00;4996104;28;20407;-68
2022/10/15 05:05:49;;;;;;;0.63;0.20;;;;;;;7.57;61.93;100592.66;4981112;28;20062;-65
2022/10/15 05:08:15;;;;;;;0.10;0.10;;;;;;;7.59;61.64;100597.84;4966446;28;20047;-66
2022/10/15 05:11:12;;;;;;;0.17;0.17;;;;;;;7.59;61.54;100595.13;4971917;28;20050;-66
2022/10/15 05:13:39;;;;;;;0.20;0.20;;;;;;;7.56;61.34;100596.41;4977809;28;20135;-65
2022/10/15 05:16:10;;;;;;;0.10;0.10;;;;;;;7.62;61.34;100598.19;4975823;28;20050;-66
2022/10/15 05:18:37;;;;;;;0.13;0.13;;;;;;;7.70;61.15;100599.75;4984337;28;20134;-66
2022/10/15 05:21:05;;;;;;;0.20;0.15;;;;;;;7.67;60.83;100594.78;4979319;28;20047;-65
2022/10/15 05:23:32;;;;;;;0.10;0.10;;;;;;;7.71;61.00;100597.84;4985814;28;20077;-66
2022/10/15 05:26:12;;;;;;;0.10;0.10;;;;;;;7.79;60.70;100609.19;4984904;28;20581;-65
2022/10/15 05:28:38;;;;;;;0.20;0.20;;;;;;;7.79;60.38;100602.94;4986955;28;20042;-66
2022/10/15 05:31:06;;;;;;;0.10;0.10;;;;;;;7.76;60.27;100600.69;4986085;28;20046;-66
2022/10/15 05:33:33;;;;;;;0.15;0.15;;;;;;;7.72;60.26;100603.06;4985062;28;20152;-66
2022/10/15 05:36:09;;;;;;;0.10;0.10;;;;;;;7.71;60.31;100604.13;4982767;28;20050;-67
2022/10/15 05:38:36;;;;;;;0.20;0.20;;;;;;;7.74;60.17;100611.00;4986264;28;20422;-66
2022/10/15 05:41:11;;;;;;;0.20;0.20;;;;;;;7.77;60.25;100607.78;4945841;28;10000442;-65
2022/10/15 05:43:37;;;;;;;0.10;0.10;;;;;;;7.74;60.13;100606.38;4965591;28;20672;-64
2022/10/15 05:46:05;;;;;;;0.10;0.10;;;;;;;7.71;60.20;100611.44;4969070;28;20043;-63
2022/10/15 05:48:32;;;;;;;0.10;0.10;;;;;;;7.69;59.90;100611.69;4963555;28;20057;-63
2022/10/15 05:51:03;;;;;;;0.10;0.10;;;;;;;7.68;59.64;100611.91;4958264;28;20079;-63
2022/10/15 05:53:30;;;;;;;0.20;0.20;;;;;;;7.66;59.57;100607.53;4949135;28;20570;-63
2022/10/15 05:56:04;;;;;;;0.10;0.10;;;;;;;7.70;59.62;100615.22;4942188;28;20148;-63
2022/10/15 05:58:33;;;;;;;0.45;0.20;;;;;;;7.71;59.55;100616.88;4979452;28;20104;-63
2022/10/15 06:01:01;;;;;;;0.15;0.15;;;;;;;7.67;59.26;100622.00;4975634;28;20057;-63
2022/10/15 06:03:28;;;;;;;0.10;0.10;;;;;;;7.69;59.23;100632.63;4982440;28;20046;-64
2022/10/15 06:05:53;;;;;;;0.10;0.10;;;;;;;7.68;59.24;100620.09;4988254;28;20104;-63
2022/10/15 06:08:21;;;;;;;0.10;0.10;;;;;;;7.77;59.07;100632.28;4987535;28;20509;-63
2022/10/15 06:10:49;;;;;;;0.73;0.20;;;;;;;7.80;58.98;100623.66;4987244;28;20050;-63
2022/10/15 06:13:15;;;;;;;0.10;0.10;;;;;;;7.74;59.06;100632.78;4978295;28;20042;-64
2022/10/15 06:15:44;;;;;;;0.75;0.20;;;;;;;7.78;58.96;100636.69;4981613;28;20050;-63
2022/10/15 06:18:14;;;;;;;0.10;0.10;;;;;;;7.82;58.48;100637.03;4937677;28;20051;-64
2022/10/15 06:20:40;;;;;;;0.35;0.20;;;;;;;7.77;58.36;100630.38;4972478;28;20556;-63
2022/10/15 06:23:08;;;;;;;0.20;0.20;;;;;;;7.79;58.06;100630.97;4975021;28;20443;-63
2022/10/15 06:25:35;;;;;;;0.20;0.20;;;;;;;7.85;58.13;100628.41;4977893;28;20150;-63
2022/10/15 06:28:03;;;;;;;0.10;0.10;;;;;;;7.88;57.80;100628.75;4985462;28;20496;-63
2022/10/15 06:30:35;;;;;;;0.10;0.10;;;;;;;7.95;57.71;100628.63;5003624;28;20158;-64
2022/10/15 06:33:01;;;;;;;0.20;0.20;;;;;;;8.01;57.33;100627.69;4969187;28;20573;-64
2022/10/15 06:35:32;;;;;;;0.17;0.13;;;;;;;7.96;57.25;100616.69;4983671;28;20066;-64
2022/10/15 06:37:59;;;;;;;0.20;0.20;;;;;;;8.03;57.18;100630.16;4985295;28;20151;-65
2022/10/15 06:40:25;;;;;;;0.30;0.30;;;;;;;8.09;57.26;100624.59;4990564;28;20050;-65
2022/10/15 06:42:52;;;;;;;0.30;0.20;;;;;;;8.14;57.16;100628.50;4988382;28;20142;-65
2022/10/15 06:45:19;;;;;;;0.10;0.10;;;;;;;8.16;57.25;100627.19;4972421;28;20058;-65
2022/10/15 06:47:45;;;;;;;0.38;0.20;;;;;;;8.18;57.09;100629.69;4976189;28;20056;-65
2022/10/15 06:50:11;;;;;;;0.20;0.20;;;;;;;8.18;57.45;100629.69;4987260;28;20090;-66
2022/10/15 06:52:38;;;;;;;0.10;0.10;;;;;;;8.24;57.31;100628.72;4983773;28;20410;-66
2022/10/15 06:55:05;;;;;;;0.17;0.17;;;;;;;8.25;57.21;100632.28;4983853;28;20580;-65
2022/10/15 06:57:31;;;;;;;0.10;0.10;;;;;;;8.23;57.23;100637.97;4985815;28;20050;-66
2022/10/15 06:59:57;;;;;;;0.10;0.10;;;;;;;8.21;57.25;100634.66;4982592;28;20054;-65
2022/10/15 07:02:25;;;;;;;0.10;0.10;;;;;;;8.22;56.90;100644.47;4985881;28;20074;-66
2022/10/15 07:04:51;;;;;;;0.10;0.10;;;;;;;8.16;57.46;100645.44;4984673;28;20086;-65
2022/10/15 07:07:19;;;;;;;0.10;0.10;;;;;;;8.17;57.57;100647.09;4984153;28;20077;-66
2022/10/15 07:09:46;;;;;;;0.10;0.10;;;;;;;8.13;57.71;100643.19;4986712;28;20456;-66
2022/10/15 07:12:12;;;;;;;0.40;0.20;;;;;;;8.14;57.99;100650.31;4990084;28;20061;-65
2022/10/15 07:14:38;;;;;;;0.10;0.10;;;;;;;8.19;57.92;100644.97;4986596;28;20050;-66
2022/10/15 07:17:04;;;;;;;0.10;0.10;;;;;;;8.24;58.11;100647.78;4970491;28;20530;-66
2022/10/15 07:19:32;;;;;;;0.10;0.10;;;;;;;8.23;57.95;100648.84;4990501;28;20489;-65
2022/10/15 07:21:59;;;;;;;0.32;0.10;;;;;;;8.21;57.84;100651.00;4991752;28;20061;-65
2022/10/15 07:24:27;;;;;;;0.10;0.10;;;;;;;8.20;57.82;100652.91;4990622;28;20100;-65
2022/10/15 07:26:53;;;;;;;0.20;0.20;;;;;;;8.23;57.93;100646.97;4985278;28;20054;-66
2022/10/15 07:29:19;;;;;;;0.30;0.20;;;;;;;8.27;57.43;100658.22;4968554;28;20522;-65
2022/10/15 07:31:45;;;;;;;0.22;0.13;;;;;;;8.31;57.09;100666.75;4989871;28;20079;-66
2022/10/15 07:34:13;;;;;;;0.15;0.15;;;;;;;8.31;56.91;100655.84;4987355;28;20050;-66
2022/10/15 07:36:41;;;;;;;0.10;0.10;;;;;;;8.37;56.63;100663.06;4979132;28;20058;-66
2022/10/15 07:39:08;;;;;;;0.20;0.20;;;;;;;8.36;56.39;100661.41;4955240;28;20500;-65
2022/10/15 07:41:34;;;;;;;0.30;0.20;;;;;;;8.32;55.89;100671.97;4969180;28;20055;-65
2022/10/15 07:44:00;;;;;;;0.15;0.15;;;;;;;8.30;55.89;100665.09;4969760;28;20054;-65
2022/10/15 07:46:26;;;;;;;0.20;0.20;;;;;;;8.31;55.85;100670.31;4970829;28;20043;-66
2022/10/15 07:48:54;;;;;;;0.10;0.10;;;;;;;8.41;55.83;100685.22;4990658;28;20054;-66
2022/10/15 07:51:20;;;;;;;0.60;0.30;;;;;;;8.42;55.90;100671.34;4987590;28;20508;-65
2022/10/15 07:53:48;;;;;;;0.10;0.10;;;;;;;8.46;55.97;100672.53;4986942;28;20154;-65
2022/10/15 07:56:15;;;;;;;0.30;0.30;;;;;;;8.41;55.95;100674.31;4985622;28;20053;-65
2022/10/15 07:58:42;;;;;;;0.20;0.20;;;;;;;8.44;55.68;100677.38;4987533;28;20046;-65
2022/10/15 08:01:09;;;;;;;0.20;0.20;;;;;;;8.46;55.66;100677.97;4984725;28;20058;-65
2022/10/15 08:03:36;;;;;;;0.20;0.20;;;;;;;8.51;55.64;100669.13;4990311;28;20054;-65
2022/10/15 08:06:03;;;;;;;0.20;0.10;;;;;;;8.53;55.69;100679.78;4989718;28;20062;-67
2022/10/15 08:08:30;;;;;;;0.20;0.15;;;;;;;8.58;55.50;100685.34;4989574;28;20046;-65
2022/10/15 08:11:03;;;;;;;0.10;0.10;;;;;;;8.62;55.69;100678.34;4985683;28;20074;-64
2022/10/15 08:13:29;;;;;;;0.20;0.20;;;;;;;8.64;55.73;100673.47;4987719;28;20096;-64
2022/10/15 08:15:56;;;;;;;0.32;0.25;;;;;;;8.71;55.50;100674.19;4985881;28;20054;-66
2022/10/15 08:18:22;;;;;;;0.20;0.20;;;;;;;8.74;55.49;100679.16;4985951;28;20538;-66
2022/10/15 08:20:48;;;;;;;0.15;0.10;;;;;;;8.75;55.60;100678.06;4985608;28;20062;-66
2022/10/15 08:23:15;;;;;;;0.20;0.20;;;;;;;8.75;55.74;100683.53;4987862;28;20514;-66
2022/10/15 08:25:42;;;;;;;0.13;0.13;;;;;;;8.78;55.67;100682.22;4988636;28;20485;-65
2022/10/15 08:28:13;;;;;;;0.35;0.35;;;;;;;8.86;55.66;100683.75;4987065;28;20046;-63
2022/10/15 08:30:39;;;;;;;0.17;0.17;;;;;;;8.92;55.64;100682.78;4982363;28;20050;-64
2022/10/15 08:33:11;;;;;;;0.20;0.20;;;;;;;8.97;55.13;100682.03;4984971;28;20108;-64
2022/10/15 08:35:40;;;;;;;0.20;0.20;;;;;;;8.98;54.83;100684.53;4987383;28;20152;-63
2022/10/15 08:38:06;;;;;;;0.13;0.13;;;;;;;9.03;54.72;100690.09;4985638;28;20052;-64
2022/10/15 08:40:32;;;;;;;0.57;0.20;;;;;;;9.06;54.54;100691.53;4985891;28;20038;-64
2022/10/15 08:42:59;;;;;;;;;;;;;;;9.08;54.51;100694.81;4985963;28;20050;-63
2022/10/15 08:45:30;;;;;;;0.10;0.10;;;;;;;9.03;54.16;100691.97;4984855;28;20036;-64
2022/10/15 08:48:02;;;;;;;0.10;0.10;;;;;;;9.07;54.27;100693.16;4987154;28;20058;-64
2022/10/15 08:50:37;;;;;;;0.10;0.10;;;;;;;9.05;54.08;100692.56;4983919;28;20074;-64
2022/10/15 08:53:03;;;;;;;0.10;0.10;;;;;;;9.04;53.96;100693.63;4985296;28;20042;-63
2022/10/15 08:55:37;;;;;;;0.43;0.20;;;;;;;8.94;54.18;100676.00;4988032;28;20075;-64
2022/10/15 08:58:12;;;;;;;0.20;0.20;;;;;;;9.12;54.10;100695.16;4985129;28;20046;-64
2022/10/15 09:00:45;;;;;;;0.20;0.20;;;;;;;9.14;54.09;100680.19;4969702;28;20069;-64
2022/10/15 09:03:32;;;;;;;1.13;0.30;;;;;;;9.25;53.66;100688.59;4965076;28;20395;-64
2022/10/15 09:06:09;;;;;;;0.20;0.20;;;;;;;9.26;53.81;100680.13;4966880;28;20051;-64
2022/10/15 09:08:43;;;;;;;0.17;0.17;;;;;;;9.29;53.37;100687.84;4964921;28;20429;-64
2022/10/15 09:11:18;;;;;;;0.10;0.10;;;;;;;9.28;53.26;100688.91;4966240;28;20414;-64
2022/10/15 09:13:45;;;;;;;0.10;0.10;;;;;;;9.28;53.12;100693.56;4983114;28;20053;-64
2022/10/15 09:16:28;;;;;;;0.17;0.17;;;;;;;9.31;52.96;100691.16;4983476;28;20052;-63
2022/10/15 09:18:57;;;;;;;0.85;0.10;;;;;;;9.36;52.92;100687.69;4967902;28;20097;-64
2022/10/15 09:21:24;;;;;;;0.20;0.20;;;;;;;9.44;52.61;100686.47;4968280;28;20403;-64
2022/10/15 09:23:51;;;;;;;;;;;;;;;9.48;52.72;100691.19;4968788;28;20518;-64
2022/10/15 09:26:27;;;;;;;0.20;0.20;;;;;;;9.55;52.26;100685.56;4984377;28;19925;-64
2022/10/15 09:29:02;;;;;;;0.10;0.10;;;;;;;9.57;52.29;100688.88;4986262;28;20049;-64
2022/10/15 09:31:37;;;;;;;0.10;0.10;;;;;;;9.58;52.12;100684.25;4985730;28;20462;-64
2022/10/15 09:34:13;;;;;;;0.25;0.20;;;;;;;9.57;52.25;100685.34;4983146;28;20051;-64
2022/10/15 09:36:44;;;;;;;0.22;0.20;;;;;;;9.60;52.19;100690.31;4982841;28;20046;-64
2022/10/15 09:39:34;;;;;;;0.20;0.20;;;;;;;9.64;52.00;100699.66;4986604;28;20054;-64
2022/10/15 09:42:12;;;;;;;0.28;0.28;;;;;;;9.61;51.73;100689.22;4986839;28;20473;-64
2022/10/15 09:44:43;;;;;;;0.20;0.20;;;;;;;9.64;51.79;100688.72;4984952;28;20465;-64
2022/10/15 09:47:23;;;;;;;0.63;0.20;;;;;;;9.56;51.51;100695.41;4940752;28;20052;-65
2022/10/15 09:49:52;;;;;;;0.10;0.10;;;;;;;9.44;51.68;100689.19;4968500;28;20515;-65
2022/10/15 09:52:28;;;;;;;0.10;0.10;;;;;;;9.40;51.96;100679.84;4968033;28;20058;-65
2022/10/15 09:55:06;;;;;;;0.10;0.10;;;;;;;9.30;52.33;100680.50;4966560;28;20410;-65
2022/10/15 09:57:35;;;;;;;0.20;0.20;;;;;;;9.30;52.83;100685.94;4965832;28;20042;-65
2022/10/15 10:00:06;;;;;;;0.10;0.10;;;;;;;9.30;52.49;100678.59;4967088;28;20043;-65
2022/10/15 10:02:40;;;;;;;0.20;0.20;;;;;;;9.32;52.52;100686.53;4965065;28;20546;-66
2022/10/15 10:05:20;;;;;;;;;;;;;;;9.28;52.57;100688.09;4967011;28;20058;-65
2022/10/15 10:07:46;;;;;;;0.10;0.10;;;;;;;9.26;52.56;100682.06;4975355;28;19926;-65
2022/10/15 10:10:24;;;;;;;0.10;0.10;;;;;;;9.19;52.84;100685.75;4981938;28;20514;-65
2022/10/15 10:12:51;;;;;;;0.10;0.10;;;;;;;9.13;52.89;100688.63;4966341;28;20047;-65
2022/10/15 10:15:31;;;;;;;0.10;0.10;;;;;;;9.02;53.39;100691.16;4966836;28;20043;-66
2022/10/15 10:17:59;;;;;;;0.20;0.20;;;;;;;8.96;53.84;100683.94;4975874;28;20050;-64
2022/10/15 10:20:27;;;;;;;0.10;0.10;;;;;;;8.95;54.06;100685.00;4971071;28;20575;-65
2022/10/15 10:22:55;;;;;;;0.13;0.13;;;;;;;8.94;54.43;100691.53;4985083;28;20042;-65
2022/10/15 10:25:29;;;;;;;;;;;;;;;8.89;54.59;100684.06;4983330;28;20645;-65
2022/10/15 10:27:57;;;;;;;0.17;0.17;;;;;;;8.94;54.71;100688.81;4981916;28;20092;-66
2022/10/15 10:30:27;;;;;;;0.10;0.10;;;;;;;8.98;54.74;100687.28;4984896;28;20054;-65
2022/10/15 10:33:00;;;;;;;0.40;0.20;;;;;;;9.00;54.88;100689.75;4998952;28;20060;-65
2022/10/15 10:35:35;;;;;;;0.10;0.10;;;;;;;9.04;55.00;100690.91;4983441;28;20069;-65
2022/10/15 10:38:02;;;;;;;0.10;0.10;;;;;;;9.02;55.00;100679.41;4983440;28;20066;-65
2022/10/15 10:40:32;;;;;;;0.10;0.10;;;;;;;9.03;55.03;100694.72;4964637;28;20529;-65
2022/10/15 10:43:23;;;;;;;0.73;0.20;;;;;;;9.07;54.95;100704.09;4966329;28;20051;-65
2022/10/15 10:45:55;;;;;;;0.20;0.20;;;;;;;9.06;55.14;100686.88;4977463;28;20050;-64
2022/10/15 10:48:25;;;;;;;0.10;0.10;;;;;;;9.04;55.46;100701.81;4989258;28;20058;-64
2022/10/15 10:51:10;;;;;;;0.15;0.15;;;;;;;9.03;55.29;100694.72;4988741;28;20517;-63
2022/10/15 10:53:46;;;;;;;0.10;0.10;;;;;;;9.01;55.45;100692.25;4969775;28;20034;-65
2022/10/15 10:56:14;;;;;;;0.20;0.20;;;;;;;9.00;55.51;100684.28;4985131;28;20130;-65
2022/10/15 10:58:40;;;;;;;0.70;0.13;;;;;;;9.12;55.32;100697.88;4632818;28;10000357;-65
2022/10/15 11:01:11;;;;;;;0.10;0.10;;;;;;;9.19;55.24;100690.38;4983095;28;20545;-65
2022/10/15 11:03:42;;;;;;;0.10;0.10;;;;;;;9.21;55.04;100682.78;4984724;28;20043;-65
2022/10/15 11:06:28;;;;;;;0.20;0.20;;;;;;;9.26;54.82;100679.31;4984162;28;20755;-66
2022/10/15 11:09:19;;;;;;;0.20;0.20;;;;;;;9.29;54.75;100685.13;4985449;28;20133;-65
2022/10/15 11:11:58;;;;;;;0.10;0.10;;;;;;;9.25;54.93;100683.13;5000415;28;20070;-64
2022/10/15 11:14:37;;;;;;;0.10;0.10;;;;;;;9.27;54.68;100686.44;4982091;28;20124;-63
2022/10/15 11:17:12;;;;;;;0.17;0.17;;;;;;;9.24;54.58;100673.28;4989478;28;20092;-64
2022/10/15 11:19:46;;;;;;;0.10;0.10;;;;;;;9.29;55.06;100681.56;4978080;28;20529;-64
2022/10/15 11:22:46;;;;;;;0.10;0.10;;;;;;;9.31;54.78;100680.25;4952020;28;20061;-64
2022/10/15 11:25:21;;;;;;;0.10;0.10;;;;;;;9.38;54.58;100682.00;4969440;28;20111;-64
2022/10/15 11:28:09;;;;;;;0.35;0.20;;;;;;;9.40;53.94;100669.75;4973276;28;20043;-64
2022/10/15 11:30:47;;;;;;;0.10;0.10;;;;;;;9.44;53.89;100676.38;4982824;28;20055;-64
2022/10/15 11:33:30;;;;;;;0.43;0.20;;;;;;;9.51;54.24;100677.03;4975031;28;20426;-63
2022/10/15 11:36:14;;;;;;;0.20;0.20;;;;;;;9.59;53.92;100677.72;4983513;28;20047;-64
2022/10/15 11:38:46;;;;;;;0.30;0.30;;;;;;;9.61;53.93;100679.16;4972401;28;20422;-64
2022/10/15 11:41:35;;;;;;;0.10;0.10;;;;;;;9.68;53.38;100681.72;4977227;28;20094;-64
2022/10/15 11:44:30;;;;;;;0.28;0.20;;;;;;;9.70;53.16;100663.19;4978945;28;20514;-64
2022/10/15 11:47:12;;;;;;;0.17;0.17;;;;;;;9.69;53.27;100674.34;4977523;28;20608;-64
2022/10/15 11:49:45;;;;;;;0.15;0.15;;;;;;;9.70;53.39;100665.06;4986576;28;20100;-64
2022/10/15 11:52:42;;;;;;;0.10;0.10;;;;;;;9.73;53.30;100673.59;4970054;28;20487;-64